createdAt,value
2018-03-27T09:53:05.178Z,9.70
2018-03-27T09:55:32.732Z,9.70
2018-03-27T09:58:00.349Z,9.70
2018-03-27T10:00:33.653Z,9.80
2018-03-27T10:03:01.189Z,9.90
2018-03-27T10:05:28.758Z,10.10
2018-03-27T10:07:56.316Z,10.50
2018-03-27T10:10:23.880Z,10.50
2018-03-27T10:12:51.445Z,10.60
2018-03-27T10:15:19.005Z,10.60
2018-03-27T10:17:46.565Z,10.60
2018-03-27T10:20:14.169Z,10.60
2018-03-27T10:22:41.736Z,10.80
2018-03-27T10:25:09.295Z,10.90
2018-03-27T10:27:36.854Z,10.70
2018-03-27T10:30:04.417Z,10.90
2018-03-27T10:32:31.979Z,11.10
2018-03-27T10:35:00.337Z,10.80
2018-03-27T10:37:27.964Z,10.80
2018-03-27T10:39:55.529Z,10.70
2018-03-27T10:42:24.006Z,10.50
2018-03-27T10:44:51.605Z,10.50
2018-03-27T10:47:19.159Z,10.50
2018-03-27T10:49:46.742Z,10.50
2018-03-27T10:52:15.076Z,10.30
2018-03-27T10:54:43.046Z,10.30
2018-03-27T10:57:10.613Z,10.20
2018-03-27T10:59:38.213Z,10.20
2018-03-27T11:02:06.672Z,10.20
2018-03-27T11:04:38.574Z,10.10
2018-03-27T11:07:10.139Z,10.30
2018-03-27T11:09:37.758Z,10.20
2018-03-27T11:12:05.342Z,10.30
2018-03-27T11:14:35.508Z,10.20
2018-03-27T11:17:03.697Z,10.30
2018-03-27T11:19:31.396Z,10.30
2018-03-27T11:22:04.222Z,10.20
2018-03-27T11:24:34.184Z,10.10
2018-03-27T11:27:05.547Z,10.30
2018-03-27T11:29:33.699Z,10.30
2018-03-27T11:32:01.331Z,10.40
2018-03-27T11:34:30.065Z,10.40
2018-03-27T11:36:59.600Z,10.50
2018-03-27T11:39:29.178Z,10.40
2018-03-27T11:41:58.034Z,10.40
2018-03-27T11:44:27.147Z,10.40
2018-03-27T11:46:54.809Z,10.40
2018-03-27T11:49:23.978Z,10.30
2018-03-27T11:51:52.861Z,10.20
2018-03-27T11:54:23.399Z,10.40
2018-03-27T11:56:50.986Z,10.40
2018-03-27T11:59:20.384Z,10.50
2018-03-27T12:01:52.779Z,10.60
2018-03-27T12:04:20.484Z,10.60
2018-03-27T12:06:50.651Z,10.50
2018-03-27T12:09:23.500Z,10.30
2018-03-27T12:11:51.100Z,10.20
2018-03-27T12:14:19.421Z,10.30
2018-03-27T12:16:47.020Z,10.30
2018-03-27T12:19:15.539Z,10.50
2018-03-27T12:21:43.104Z,10.60
2018-03-27T12:24:10.711Z,10.60
2018-03-27T12:26:38.344Z,10.80
2018-03-27T12:29:05.940Z,11.00
2018-03-27T12:31:34.279Z,11.10
2018-03-27T12:34:01.856Z,11.10
2018-03-27T12:36:30.234Z,11.10
2018-03-27T12:38:57.823Z,11.20
2018-03-27T12:41:25.419Z,11.40
2018-03-27T12:43:52.994Z,11.50
2018-03-27T12:46:22.162Z,11.80
2018-03-27T12:48:50.547Z,11.90
2018-03-27T12:51:18.892Z,11.90
2018-03-27T12:53:46.461Z,11.90
2018-03-27T12:56:14.219Z,11.90
2018-03-27T12:58:41.796Z,12.00
2018-03-27T13:01:10.300Z,11.70
2018-03-27T13:03:37.923Z,11.70
2018-03-27T13:06:05.473Z,11.90
2018-03-27T13:08:33.063Z,12.00
2018-03-27T13:11:01.434Z,11.90
2018-03-27T13:13:29.057Z,11.90
2018-03-27T13:15:56.776Z,11.90
2018-03-27T13:18:24.424Z,11.90
2018-03-27T13:20:54.003Z,12.00
2018-03-27T13:23:23.751Z,11.90
2018-03-27T13:25:51.340Z,11.90
2018-03-27T13:28:19.214Z,12.00
2018-03-27T13:30:46.911Z,11.90
2018-03-27T13:33:14.478Z,11.90
2018-03-27T13:35:42.221Z,11.80
2018-03-27T13:38:10.672Z,11.90
2018-03-27T13:40:38.323Z,11.90
2018-03-27T13:43:05.948Z,12.00
2018-03-27T13:45:33.544Z,12.20
2018-03-27T13:48:01.184Z,12.20
2018-03-27T13:50:28.838Z,12.30
2018-03-27T13:52:57.162Z,12.40
2018-03-27T13:55:24.729Z,12.40
2018-03-27T13:57:52.588Z,12.30
2018-03-27T14:00:20.274Z,12.10
2018-03-27T14:02:47.838Z,12.10
2018-03-27T14:05:15.424Z,11.90
2018-03-27T14:07:45.447Z,11.80
2018-03-27T14:10:13.783Z,11.80
2018-03-27T14:12:41.364Z,11.90
2018-03-27T14:15:09.132Z,12.00
2018-03-27T14:17:36.732Z,12.10
2018-03-27T14:20:04.339Z,12.30
2018-03-27T14:22:31.947Z,12.10
2018-03-27T14:25:00.325Z,12.10
2018-03-27T14:27:28.111Z,12.10
2018-03-27T14:29:55.800Z,12.20
2018-03-27T14:32:23.488Z,12.40
2018-03-27T14:34:52.014Z,12.60
2018-03-27T14:37:20.027Z,12.60
2018-03-27T14:39:48.069Z,12.70
2018-03-27T14:42:15.926Z,12.60
2018-03-27T14:44:43.555Z,12.60
2018-03-27T14:47:11.352Z,12.50
2018-03-27T14:49:38.990Z,12.60
2018-03-27T14:52:07.375Z,12.50
2018-03-27T14:54:34.976Z,12.40
2018-03-27T14:57:02.541Z,12.30
2018-03-27T14:59:30.121Z,12.40
2018-03-27T15:01:57.693Z,12.30
2018-03-27T15:04:26.076Z,12.20
2018-03-27T15:06:54.411Z,12.00
2018-03-27T15:09:21.965Z,12.00
2018-03-27T15:11:49.533Z,11.90
2018-03-27T15:14:17.098Z,11.80
2018-03-27T15:16:44.701Z,11.60
2018-03-27T15:19:13.028Z,11.40
2018-03-27T15:21:40.611Z,11.40
2018-03-27T15:24:08.237Z,11.40
2018-03-27T15:26:35.831Z,11.40
2018-03-27T15:29:03.376Z,11.40
2018-03-27T15:31:30.937Z,11.40
2018-03-27T15:33:58.500Z,11.30
2018-03-27T15:36:26.059Z,11.40
2018-03-27T15:38:53.611Z,11.40
2018-03-27T15:41:21.168Z,11.50
2018-03-27T15:43:48.774Z,11.60
2018-03-27T15:46:16.345Z,11.60
2018-03-27T15:48:44.660Z,11.70
2018-03-27T15:51:12.324Z,11.70
2018-03-27T15:53:40.489Z,11.80
2018-03-27T15:56:08.034Z,11.60
2018-03-27T15:58:35.637Z,11.50
2018-03-27T16:01:03.828Z,11.50
2018-03-27T16:03:33.456Z,11.50
2018-03-27T16:06:01.045Z,11.60
2018-03-27T16:08:28.631Z,11.60
2018-03-27T16:10:56.323Z,11.40
2018-03-27T16:13:24.639Z,11.30
2018-03-27T16:15:52.847Z,11.30
2018-03-27T16:18:20.401Z,11.30
2018-03-27T16:20:47.988Z,11.30
2018-03-27T16:23:15.571Z,11.20
2018-03-27T16:25:43.910Z,11.10
2018-03-27T16:28:11.469Z,11.10
2018-03-27T16:30:40.029Z,11.00
2018-03-27T16:33:07.653Z,11.00
2018-03-27T16:35:35.252Z,10.90
2018-03-27T16:38:03.035Z,10.90
2018-03-27T16:40:30.707Z,10.90
2018-03-27T16:42:58.336Z,10.90
2018-03-27T16:45:26.091Z,10.90
2018-03-27T16:47:53.758Z,10.90
2018-03-27T16:50:23.180Z,10.90
2018-03-27T16:52:50.739Z,10.90
2018-03-27T16:55:18.315Z,10.90
2018-03-27T16:57:45.861Z,10.90
2018-03-27T17:00:13.404Z,10.80
2018-03-27T17:02:41.138Z,10.80
2018-03-27T17:05:09.476Z,10.70
2018-03-27T17:07:37.092Z,10.70
2018-03-27T17:10:04.662Z,10.60
2018-03-27T17:12:32.217Z,10.60
2018-03-27T17:15:06.734Z,10.60
2018-03-27T17:17:34.311Z,10.60
2018-03-27T17:20:01.865Z,10.40
2018-03-27T17:22:29.453Z,10.40
2018-03-27T17:24:57.058Z,10.40
2018-03-27T17:27:24.621Z,10.40
2018-03-27T17:29:52.960Z,10.30
2018-03-27T17:32:20.532Z,10.30
2018-03-27T17:34:48.122Z,10.30
2018-03-27T17:37:15.687Z,10.30
2018-03-27T17:39:43.244Z,10.20
2018-03-27T17:42:10.808Z,10.20
2018-03-27T17:44:38.380Z,10.10
2018-03-27T17:47:05.983Z,10.00
2018-03-27T17:49:33.532Z,9.90
2018-03-27T17:52:01.851Z,9.80
2018-03-27T17:54:30.172Z,9.80
2018-03-27T17:56:57.815Z,9.80
2018-03-27T17:59:25.387Z,9.70
2018-03-27T18:01:52.932Z,9.70
2018-03-27T18:04:21.065Z,9.70
2018-03-27T18:06:48.649Z,9.70
2018-03-27T18:09:16.233Z,9.60
2018-03-27T18:11:43.822Z,9.60
2018-03-27T18:14:12.133Z,9.30
2018-03-27T18:16:40.453Z,9.20
2018-03-27T18:19:08.013Z,9.10
2018-03-27T18:21:35.643Z,8.90
2018-03-27T18:24:04.005Z,8.70
2018-03-27T18:26:32.933Z,8.60
2018-03-27T18:29:00.610Z,8.60
2018-03-27T18:31:28.219Z,8.50
2018-03-27T18:33:55.777Z,8.50
2018-03-27T18:36:24.106Z,8.30
2018-03-27T18:38:51.687Z,8.30
2018-03-27T18:41:19.252Z,8.30
2018-03-27T18:43:46.824Z,8.30
2018-03-27T18:46:14.397Z,8.30
2018-03-27T18:48:42.727Z,8.10
2018-03-27T18:51:10.334Z,8.10
2018-03-27T18:53:38.664Z,7.90
2018-03-27T18:56:06.201Z,7.90
2018-03-27T18:58:33.760Z,7.90
2018-03-27T19:01:01.316Z,7.90
2018-03-27T19:03:28.904Z,7.80
2018-03-27T19:05:57.300Z,7.80
2018-03-27T19:08:24.838Z,7.80
2018-03-27T19:10:52.495Z,7.80
2018-03-27T19:13:20.120Z,7.80
2018-03-27T19:15:48.520Z,7.70
2018-03-27T19:18:16.217Z,7.70
2018-03-27T19:20:43.800Z,7.70
2018-03-27T19:23:11.404Z,7.80
2018-03-27T19:25:39.058Z,7.80
2018-03-27T19:28:06.762Z,7.90
2018-03-27T19:30:34.317Z,7.90
2018-03-27T19:33:01.942Z,7.80
2018-03-27T19:35:30.354Z,7.80
2018-03-27T19:37:59.303Z,7.80
2018-03-27T19:40:27.694Z,7.80
2018-03-27T19:42:56.242Z,7.70
2018-03-27T19:45:24.723Z,7.70
2018-03-27T19:47:53.075Z,7.80
2018-03-27T19:50:21.422Z,7.70
2018-03-27T19:52:49.102Z,7.80
2018-03-27T19:55:16.928Z,7.80
2018-03-27T19:57:45.339Z,7.80
2018-03-27T20:00:12.984Z,7.80
2018-03-27T20:02:52.357Z,7.80
2018-03-27T20:05:25.325Z,7.70
2018-03-27T20:07:53.122Z,7.70
2018-03-27T20:10:20.767Z,7.60
2018-03-27T20:12:48.427Z,7.60
2018-03-27T20:15:16.078Z,7.50
2018-03-27T20:17:52.366Z,7.60
2018-03-27T20:20:19.963Z,7.60
2018-03-27T20:22:47.548Z,7.60
2018-03-27T20:25:15.206Z,7.50
2018-03-27T20:27:43.688Z,7.50
2018-03-27T20:30:11.386Z,7.50
2018-03-27T20:32:39.060Z,7.60
2018-03-27T20:35:07.709Z,7.60
2018-03-27T20:37:35.450Z,7.60
2018-03-27T20:40:03.790Z,7.50
2018-03-27T20:42:31.470Z,7.50
2018-03-27T20:44:59.243Z,7.60
2018-03-27T20:47:28.360Z,7.40
2018-03-27T20:49:56.695Z,7.40
2018-03-27T20:52:24.426Z,7.40
2018-03-27T20:54:52.337Z,7.30
2018-03-27T20:57:19.917Z,7.30
2018-03-27T20:59:47.507Z,7.20
2018-03-27T21:02:15.175Z,7.20
2018-03-27T21:04:42.740Z,7.30
2018-03-27T21:07:10.289Z,7.30
2018-03-27T21:09:37.893Z,7.30
2018-03-27T21:12:05.521Z,7.30
2018-03-27T21:14:33.082Z,7.30
2018-03-27T21:17:00.629Z,7.30
2018-03-27T21:19:28.183Z,7.30
2018-03-27T21:21:55.729Z,7.30
2018-03-27T21:24:24.053Z,7.30
2018-03-27T21:26:51.608Z,7.20
2018-03-27T21:29:19.214Z,7.30
2018-03-27T21:31:47.533Z,7.20
2018-03-27T21:34:15.136Z,7.20
2018-03-27T21:36:43.501Z,7.20
2018-03-27T21:39:12.056Z,7.10
2018-03-27T21:41:39.619Z,7.20
2018-03-27T21:44:07.173Z,7.20
2018-03-27T21:46:35.655Z,7.20
2018-03-27T21:49:03.205Z,7.10
2018-03-27T21:51:30.872Z,7.00
2018-03-27T21:53:58.428Z,6.80
2018-03-27T21:56:26.097Z,6.80
2018-03-27T21:58:54.401Z,6.70
2018-03-27T22:01:27.718Z,6.60
2018-03-27T22:03:55.290Z,6.60
2018-03-27T22:06:25.544Z,6.70
2018-03-27T22:08:53.126Z,6.60
2018-03-27T22:11:20.684Z,6.70
2018-03-27T22:13:48.647Z,6.60
2018-03-27T22:16:16.219Z,6.60
2018-03-27T22:18:44.604Z,6.50
2018-03-27T22:21:12.155Z,6.50
2018-03-27T22:23:39.714Z,6.50
2018-03-27T22:26:07.275Z,6.50
2018-03-27T22:28:34.835Z,6.50
2018-03-27T22:31:02.375Z,6.40
2018-03-27T22:33:30.000Z,6.50
2018-03-27T22:35:58.325Z,6.50
2018-03-27T22:38:25.867Z,6.50
2018-03-27T22:40:53.435Z,6.50
2018-03-27T22:43:20.982Z,6.50
2018-03-27T22:45:48.531Z,6.60
2018-03-27T22:48:16.064Z,6.60
2018-03-27T22:50:43.673Z,6.60
2018-03-27T22:53:11.228Z,6.60
2018-03-27T22:55:38.765Z,6.60
2018-03-27T22:58:07.106Z,6.60
